createdAt,value
2023-08-27T00:00:40.024Z,19.16
2023-08-27T00:03:27.422Z,19.19
2023-08-27T00:05:54.468Z,19.18
2023-08-27T00:08:21.790Z,19.23
2023-08-27T00:10:49.655Z,19.25
2023-08-27T00:13:16.962Z,19.27
2023-08-27T00:15:47.420Z,19.29
2023-08-27T00:18:14.878Z,19.32
2023-08-27T00:20:42.556Z,19.38
2023-08-27T00:23:09.806Z,19.38
2023-08-27T00:25:36.727Z,19.39
2023-08-27T00:28:04.026Z,19.37
2023-08-27T00:30:31.041Z,19.36
2023-08-27T00:33:00.935Z,19.36
2023-08-27T00:35:31.045Z,19.33
2023-08-27T00:37:58.755Z,19.38
2023-08-27T00:40:28.472Z,19.40
2023-08-27T00:42:56.275Z,19.43
2023-08-27T00:45:23.288Z,19.43
2023-08-27T00:47:52.982Z,19.42
2023-08-27T00:50:20.456Z,19.43
2023-08-27T00:52:47.726Z,19.44
2023-08-27T00:55:15.733Z,19.41
2023-08-27T00:57:43.257Z,19.41
2023-08-27T01:00:10.882Z,19.40
2023-08-27T01:02:41.158Z,19.37
2023-08-27T01:05:08.555Z,19.35
2023-08-27T01:07:48.841Z,19.30
2023-08-27T01:10:19.353Z,19.26
2023-08-27T01:12:58.533Z,19.20
2023-08-27T01:15:25.712Z,19.19
2023-08-27T01:17:55.554Z,19.11
2023-08-27T01:20:23.378Z,19.07
2023-08-27T01:22:50.636Z,19.10
2023-08-27T01:25:22.435Z,19.08
2023-08-27T01:28:16.161Z,19.16
2023-08-27T01:30:52.656Z,19.18
2023-08-27T01:33:23.140Z,19.11
2023-08-27T01:35:50.481Z,19.03
2023-08-27T01:38:19.304Z,18.96
2023-08-27T01:40:46.328Z,18.89
2023-08-27T01:43:14.227Z,18.88
2023-08-27T01:45:41.233Z,18.90
2023-08-27T01:48:08.543Z,18.85
2023-08-27T01:50:35.624Z,18.78
2023-08-27T01:53:03.986Z,18.74
2023-08-27T01:55:36.256Z,18.70
2023-08-27T01:58:03.813Z,18.67
2023-08-27T02:00:30.838Z,18.67
2023-08-27T02:02:58.615Z,18.61
2023-08-27T02:05:25.837Z,18.55
2023-08-27T02:07:53.470Z,18.55
2023-08-27T02:10:22.615Z,18.65
2023-08-27T02:12:51.903Z,18.79
2023-08-27T02:15:18.864Z,18.90
2023-08-27T02:17:46.117Z,18.94
2023-08-27T02:20:13.119Z,18.99
2023-08-27T02:22:40.454Z,18.97
2023-08-27T02:25:08.695Z,18.97
2023-08-27T02:27:38.748Z,18.98
2023-08-27T02:30:06.099Z,19.06
2023-08-27T02:32:33.270Z,19.07
2023-08-27T02:35:00.246Z,19.02
2023-08-27T02:37:29.926Z,18.95
2023-08-27T02:39:56.874Z,18.90
2023-08-27T02:42:26.902Z,18.84
2023-08-27T02:44:54.057Z,18.74
2023-08-27T02:47:24.692Z,18.70
2023-08-27T02:49:51.689Z,18.66
2023-08-27T02:52:18.951Z,18.63
2023-08-27T02:54:46.104Z,18.58
2023-08-27T02:57:13.414Z,18.57
2023-08-27T02:59:40.310Z,18.61
2023-08-27T03:02:10.428Z,18.60
2023-08-27T03:04:37.692Z,18.64
2023-08-27T03:07:07.360Z,18.69
2023-08-27T03:09:34.210Z,18.68
2023-08-27T03:12:01.429Z,18.66
2023-08-27T03:14:28.528Z,18.67
2023-08-27T03:16:55.820Z,18.65
2023-08-27T03:19:22.830Z,18.64
2023-08-27T03:21:52.897Z,18.60
2023-08-27T03:24:19.773Z,18.63
2023-08-27T03:26:47.162Z,18.64
2023-08-27T03:29:14.018Z,18.68
2023-08-27T03:31:41.465Z,18.67
2023-08-27T03:34:09.506Z,18.62
2023-08-27T03:36:36.706Z,18.56
2023-08-27T03:39:03.659Z,18.45
2023-08-27T03:41:33.416Z,18.42
2023-08-27T03:44:00.338Z,18.42
2023-08-27T03:46:28.049Z,18.32
2023-08-27T03:48:54.988Z,18.24
2023-08-27T03:51:27.668Z,18.18
2023-08-27T03:53:54.580Z,18.12
2023-08-27T03:56:22.387Z,18.07
2023-08-27T03:58:49.800Z,18.07
2023-08-27T04:01:18.006Z,18.06
2023-08-27T04:03:45.907Z,18.04
2023-08-27T04:06:18.143Z,18.07
2023-08-27T04:08:45.853Z,18.10
2023-08-27T04:11:13.213Z,18.12
2023-08-27T04:13:42.681Z,18.19
2023-08-27T04:16:12.680Z,18.20
2023-08-27T04:18:39.643Z,18.27
2023-08-27T04:21:10.957Z,18.27
2023-08-27T04:23:37.957Z,18.28
2023-08-27T04:26:07.761Z,18.31
2023-08-27T04:28:34.753Z,18.35
2023-08-27T04:31:02.338Z,18.38
2023-08-27T04:33:29.554Z,18.41
2023-08-27T04:35:56.832Z,18.50
2023-08-27T04:38:23.953Z,18.57
2023-08-27T04:40:52.624Z,18.67
2023-08-27T04:43:20.807Z,18.74
2023-08-27T04:45:49.214Z,18.87
2023-08-27T04:48:16.862Z,18.97
2023-08-27T04:50:45.613Z,19.07
2023-08-27T04:53:13.577Z,19.20
2023-08-27T04:55:41.116Z,19.27
2023-08-27T04:58:09.797Z,19.39
2023-08-27T05:00:38.905Z,19.55
2023-08-27T05:03:08.968Z,19.63
2023-08-27T05:05:36.425Z,19.75
2023-08-27T05:08:03.945Z,19.94
2023-08-27T05:10:31.461Z,20.12
2023-08-27T05:12:58.823Z,20.20
2023-08-27T05:15:25.926Z,20.46
2023-08-27T05:17:53.570Z,20.59
2023-08-27T05:20:20.585Z,20.40
2023-08-27T05:22:47.949Z,20.38
2023-08-27T05:25:14.995Z,20.35
2023-08-27T05:27:45.799Z,20.35
2023-08-27T05:30:14.308Z,20.37
2023-08-27T05:32:42.226Z,20.34
2023-08-27T05:35:10.643Z,20.34
2023-08-27T05:37:37.894Z,20.37
2023-08-27T05:40:07.202Z,20.42
2023-08-27T05:42:34.566Z,20.48
2023-08-27T05:45:01.755Z,20.49
2023-08-27T05:47:29.139Z,20.50
2023-08-27T05:49:56.215Z,20.52
2023-08-27T05:52:23.430Z,20.48
2023-08-27T05:54:50.381Z,20.43
2023-08-27T05:57:18.497Z,20.37
2023-08-27T05:59:45.579Z,20.40
2023-08-27T06:02:15.293Z,20.33
2023-08-27T06:04:43.126Z,20.32
2023-08-27T06:07:11.545Z,20.45
2023-08-27T06:09:38.837Z,20.52
2023-08-27T06:12:08.516Z,20.55
2023-08-27T06:14:35.732Z,20.69
2023-08-27T06:17:02.993Z,20.73
2023-08-27T06:19:39.657Z,20.83
2023-08-27T06:22:15.367Z,20.83
2023-08-27T06:24:42.352Z,20.93
2023-08-27T06:27:09.672Z,20.98
2023-08-27T06:29:36.548Z,21.08
2023-08-27T06:32:03.836Z,21.27
2023-08-27T06:34:34.139Z,21.47
2023-08-27T06:37:01.483Z,21.64
2023-08-27T06:39:28.748Z,21.76
2023-08-27T06:41:59.088Z,21.80
2023-08-27T06:44:27.684Z,21.99
2023-08-27T06:46:58.276Z,22.02
2023-08-27T06:49:28.834Z,22.17
2023-08-27T06:51:58.066Z,22.34
2023-08-27T06:54:25.027Z,22.81
2023-08-27T06:56:52.453Z,23.74
2023-08-27T06:59:22.069Z,24.91
2023-08-27T07:01:49.566Z,24.57
2023-08-27T07:04:16.502Z,24.48
2023-08-27T07:06:46.323Z,24.85
2023-08-27T07:09:13.399Z,27.50
2023-08-27T07:11:40.710Z,28.59
2023-08-27T07:14:07.776Z,29.19
2023-08-27T07:16:35.162Z,28.67
2023-08-27T07:19:02.379Z,27.74
2023-08-27T07:21:29.748Z,27.24
2023-08-27T07:24:00.594Z,27.25
2023-08-27T07:26:28.669Z,27.30
2023-08-27T07:28:55.646Z,27.19
2023-08-27T07:31:25.653Z,27.11
2023-08-27T07:33:53.787Z,27.07
2023-08-27T07:36:23.560Z,27.54
2023-08-27T07:38:50.731Z,27.42
2023-08-27T07:41:20.712Z,27.32
2023-08-27T07:43:49.803Z,27.90
2023-08-27T07:46:17.952Z,29.06
2023-08-27T07:48:47.308Z,30.50
2023-08-27T07:51:15.178Z,30.50
2023-08-27T07:53:45.510Z,29.90
2023-08-27T07:56:13.052Z,30.04
2023-08-27T07:58:40.115Z,28.75
2023-08-27T08:01:07.599Z,29.59
2023-08-27T08:03:38.349Z,30.80
2023-08-27T08:06:05.895Z,30.76
2023-08-27T08:08:32.941Z,31.38
2023-08-27T08:11:00.400Z,31.81
2023-08-27T08:13:30.082Z,32.88
2023-08-27T08:15:57.284Z,33.13
2023-08-27T08:18:24.357Z,32.69
2023-08-27T08:20:55.314Z,32.98
2023-08-27T08:23:22.289Z,33.50
2023-08-27T08:25:50.931Z,33.79
2023-08-27T08:28:17.940Z,33.89
2023-08-27T08:30:46.526Z,33.97
2023-08-27T08:33:13.528Z,34.02
2023-08-27T08:35:40.765Z,34.01
2023-08-27T08:38:07.934Z,34.33
2023-08-27T08:40:39.806Z,34.05
2023-08-27T08:43:08.165Z,34.31
2023-08-27T08:45:44.224Z,34.69
2023-08-27T08:48:12.883Z,34.35
2023-08-27T08:50:41.671Z,34.36
2023-08-27T08:53:18.177Z,33.73
2023-08-27T08:55:52.994Z,33.34
2023-08-27T08:58:20.819Z,32.67
2023-08-27T09:00:48.578Z,31.31
2023-08-27T09:03:17.023Z,30.51
2023-08-27T09:05:45.620Z,30.15
2023-08-27T09:08:14.583Z,30.84
2023-08-27T09:10:41.998Z,30.04
2023-08-27T09:13:08.998Z,30.26
2023-08-27T09:15:36.203Z,30.91
2023-08-27T09:18:04.051Z,30.92
2023-08-27T09:20:31.839Z,29.64
2023-08-27T09:22:59.895Z,29.17
2023-08-27T09:25:28.410Z,29.08
2023-08-27T09:27:56.165Z,28.82
2023-08-27T09:30:24.653Z,28.30
2023-08-27T09:32:51.859Z,27.63
2023-08-27T09:35:19.171Z,27.33
2023-08-27T09:37:46.219Z,27.27
2023-08-27T09:40:18.073Z,27.16
2023-08-27T09:42:45.756Z,27.02
2023-08-27T09:45:13.436Z,26.85
2023-08-27T09:47:42.128Z,26.78
2023-08-27T09:50:16.441Z,26.75
2023-08-27T09:52:46.700Z,26.75
2023-08-27T09:55:15.467Z,26.86
2023-08-27T09:57:51.629Z,27.12
2023-08-27T10:00:19.652Z,27.66
2023-08-27T10:02:50.365Z,27.90
2023-08-27T10:05:28.584Z,28.62
2023-08-27T10:07:57.348Z,29.57
2023-08-27T10:10:25.118Z,30.22
2023-08-27T10:12:52.881Z,30.37
2023-08-27T10:15:20.730Z,31.15
2023-08-27T10:17:48.313Z,31.37
2023-08-27T10:20:17.710Z,31.50
2023-08-27T10:22:48.222Z,31.84
2023-08-27T10:25:19.320Z,32.21
2023-08-27T10:27:52.778Z,32.20
2023-08-27T10:30:20.183Z,31.73
2023-08-27T10:32:47.220Z,31.65
2023-08-27T10:35:15.510Z,31.98
2023-08-27T10:37:44.808Z,31.52
2023-08-27T10:40:13.712Z,30.89
2023-08-27T10:42:43.069Z,30.87
2023-08-27T10:45:11.270Z,30.67
2023-08-27T10:47:38.770Z,30.44
2023-08-27T10:50:06.521Z,30.00
2023-08-27T10:52:48.929Z,29.89
2023-08-27T10:55:21.275Z,29.70
2023-08-27T10:57:48.577Z,29.55
2023-08-27T11:00:16.744Z,29.65
2023-08-27T11:03:00.348Z,29.78
2023-08-27T11:05:29.560Z,29.97
2023-08-27T11:08:02.874Z,29.67
2023-08-27T11:10:31.530Z,29.52
2023-08-27T11:12:58.919Z,29.69
2023-08-27T11:15:33.282Z,30.00
2023-08-27T11:18:22.168Z,30.28
2023-08-27T11:20:51.787Z,30.39
2023-08-27T11:23:19.273Z,30.36
2023-08-27T11:25:48.013Z,30.52
2023-08-27T11:28:15.440Z,30.67
2023-08-27T11:30:45.457Z,30.61
2023-08-27T11:33:15.743Z,30.44
2023-08-27T11:35:43.208Z,30.22
2023-08-27T11:38:11.940Z,30.11
2023-08-27T11:40:39.476Z,29.80
2023-08-27T11:43:06.854Z,29.85
2023-08-27T11:45:39.042Z,29.63
2023-08-27T11:48:07.476Z,29.21
2023-08-27T11:50:38.744Z,28.85
2023-08-27T11:53:06.390Z,29.29
2023-08-27T11:55:34.683Z,29.28
2023-08-27T11:58:02.860Z,28.96
2023-08-27T12:00:32.618Z,28.83
2023-08-27T12:03:01.014Z,28.57
2023-08-27T12:05:28.891Z,28.27
2023-08-27T12:07:56.087Z,28.29
2023-08-27T12:10:26.070Z,28.02
2023-08-27T12:12:55.318Z,27.73
2023-08-27T12:15:29.893Z,27.68
2023-08-27T12:17:57.419Z,27.65
2023-08-27T12:20:34.700Z,27.92
2023-08-27T12:23:12.229Z,28.29
2023-08-27T12:25:49.564Z,28.44
2023-08-27T12:28:20.409Z,28.32
2023-08-27T12:30:51.791Z,28.43
2023-08-27T12:33:20.268Z,28.17
2023-08-27T12:35:49.061Z,27.58
2023-08-27T12:38:18.505Z,27.37
2023-08-27T12:40:46.206Z,27.29
2023-08-27T12:43:13.351Z,27.25
2023-08-27T12:45:40.810Z,26.95
2023-08-27T12:48:08.760Z,26.76
2023-08-27T12:50:35.990Z,26.93
2023-08-27T12:53:03.519Z,27.00
2023-08-27T12:55:31.814Z,26.97
2023-08-27T12:57:59.730Z,26.89
2023-08-27T13:00:28.070Z,26.91
2023-08-27T13:02:58.042Z,26.72
2023-08-27T13:05:26.979Z,26.74
2023-08-27T13:08:02.052Z,26.46
2023-08-27T13:10:30.118Z,26.08
2023-08-27T13:12:57.570Z,25.93
2023-08-27T13:15:25.165Z,25.86
2023-08-27T13:17:52.594Z,25.69
2023-08-27T13:20:22.098Z,25.64
2023-08-27T13:22:50.649Z,25.78
2023-08-27T13:25:18.282Z,25.86
2023-08-27T13:27:46.035Z,25.77
2023-08-27T13:30:13.824Z,25.82
2023-08-27T13:32:41.820Z,25.77
2023-08-27T13:35:09.891Z,26.00
2023-08-27T13:37:37.289Z,26.05
2023-08-27T13:40:05.457Z,26.28
2023-08-27T13:42:38.506Z,26.16
2023-08-27T13:45:06.841Z,26.18
2023-08-27T13:47:37.001Z,26.08
2023-08-27T13:50:05.303Z,25.99
2023-08-27T13:52:33.208Z,25.91
2023-08-27T13:55:04.463Z,25.84
2023-08-27T13:57:36.755Z,25.83
2023-08-27T14:00:05.513Z,25.86
2023-08-27T14:02:33.159Z,25.81
2023-08-27T14:05:01.111Z,25.91
2023-08-27T14:07:28.594Z,25.86
2023-08-27T14:09:56.283Z,25.83
2023-08-27T14:12:29.213Z,25.64
2023-08-27T14:14:56.904Z,25.61
2023-08-27T14:17:25.015Z,25.50
2023-08-27T14:19:52.785Z,25.34
2023-08-27T14:22:20.636Z,25.26
2023-08-27T14:24:48.152Z,25.19
2023-08-27T14:27:15.864Z,25.25
2023-08-27T14:29:44.620Z,25.28
2023-08-27T14:32:14.404Z,25.22
2023-08-27T14:34:42.177Z,25.11
2023-08-27T14:37:09.921Z,25.01
2023-08-27T14:39:40.350Z,24.95
2023-08-27T14:42:08.952Z,24.92
2023-08-27T14:44:56.496Z,24.95
2023-08-27T14:47:24.267Z,24.84
2023-08-27T14:49:54.574Z,24.80
2023-08-27T14:52:22.620Z,24.88
2023-08-27T14:54:51.063Z,24.84
2023-08-27T14:57:20.624Z,24.79
2023-08-27T14:59:49.212Z,24.83
2023-08-27T15:02:17.729Z,24.80
2023-08-27T15:04:49.147Z,24.75
2023-08-27T15:07:20.606Z,24.73
2023-08-27T15:09:48.569Z,24.80
2023-08-27T15:12:17.766Z,24.91
2023-08-27T15:14:46.472Z,25.14
2023-08-27T15:17:15.144Z,25.19
2023-08-27T15:19:43.535Z,25.14
2023-08-27T15:22:14.184Z,24.99
2023-08-27T15:24:43.133Z,24.94
2023-08-27T15:27:10.845Z,24.96
2023-08-27T15:29:38.496Z,24.88
2023-08-27T15:32:06.084Z,24.91
2023-08-27T15:34:34.102Z,24.85
2023-08-27T15:37:02.028Z,24.83
2023-08-27T15:39:30.336Z,24.84
2023-08-27T15:41:57.516Z,24.84
2023-08-27T15:44:25.647Z,24.89
2023-08-27T15:46:53.567Z,24.98
2023-08-27T15:49:22.056Z,25.05
2023-08-27T15:51:52.008Z,25.10
2023-08-27T15:54:19.987Z,25.16
2023-08-27T15:56:47.840Z,25.14
2023-08-27T15:59:16.020Z,25.23
2023-08-27T16:01:43.708Z,25.14
2023-08-27T16:04:14.035Z,25.16
2023-08-27T16:06:41.689Z,25.09
2023-08-27T16:09:09.812Z,25.00
2023-08-27T16:11:39.440Z,24.84
2023-08-27T16:14:07.153Z,24.76
2023-08-27T16:16:34.349Z,24.64
2023-08-27T16:19:02.557Z,24.50
2023-08-27T16:21:31.212Z,24.44
2023-08-27T16:24:02.326Z,24.28
2023-08-27T16:26:35.987Z,24.14
2023-08-27T16:29:04.087Z,24.05
2023-08-27T16:31:32.719Z,23.91
2023-08-27T16:34:04.134Z,23.82
2023-08-27T16:36:33.043Z,23.72
2023-08-27T16:39:01.306Z,23.68
2023-08-27T16:41:29.809Z,23.62
2023-08-27T16:43:59.853Z,23.55
2023-08-27T16:46:28.385Z,23.51
2023-08-27T16:48:57.778Z,23.46
2023-08-27T16:51:25.909Z,23.37
2023-08-27T16:53:54.141Z,23.31
2023-08-27T16:56:23.998Z,23.26
2023-08-27T16:58:51.642Z,23.19
2023-08-27T17:01:19.711Z,23.14
2023-08-27T17:03:47.990Z,23.08
2023-08-27T17:06:15.458Z,23.03
2023-08-27T17:08:43.569Z,22.95
2023-08-27T17:11:11.652Z,22.91
2023-08-27T17:13:42.763Z,22.87
2023-08-27T17:16:11.405Z,22.85
2023-08-27T17:18:45.713Z,22.82
2023-08-27T17:21:13.370Z,22.77
2023-08-27T17:23:43.868Z,22.73
2023-08-27T17:26:12.201Z,22.72
2023-08-27T17:28:40.671Z,22.71
2023-08-27T17:31:08.264Z,22.66
2023-08-27T17:33:36.067Z,22.60
2023-08-27T17:36:03.288Z,22.58
2023-08-27T17:38:32.177Z,22.54
2023-08-27T17:41:00.176Z,22.51
2023-08-27T17:43:29.086Z,22.47
2023-08-27T17:45:59.289Z,22.40
2023-08-27T17:48:27.188Z,22.38
2023-08-27T17:50:57.036Z,22.33
2023-08-27T17:53:25.246Z,22.25
2023-08-27T17:55:56.060Z,22.21
2023-08-27T17:58:29.380Z,22.16
2023-08-27T18:00:57.769Z,22.14
2023-08-27T18:03:26.101Z,22.06
2023-08-27T18:05:55.997Z,22.00
2023-08-27T18:08:23.904Z,21.97
2023-08-27T18:10:51.540Z,21.93
2023-08-27T18:13:19.723Z,21.85
2023-08-27T18:15:47.876Z,21.85
2023-08-27T18:18:15.661Z,21.75
2023-08-27T18:20:43.474Z,21.72
2023-08-27T18:23:13.762Z,21.68
2023-08-27T18:25:41.544Z,21.64
2023-08-27T18:28:09.957Z,21.58
2023-08-27T18:30:37.470Z,21.56
2023-08-27T18:33:06.369Z,21.52
2023-08-27T18:35:34.730Z,21.50
2023-08-27T18:38:03.984Z,21.46
2023-08-27T18:40:36.456Z,21.46
2023-08-27T18:43:06.165Z,21.42
2023-08-27T18:45:37.860Z,21.42
2023-08-27T18:48:07.605Z,21.35
2023-08-27T18:50:35.028Z,21.31
2023-08-27T18:53:06.178Z,21.27
2023-08-27T18:55:34.681Z,21.24
2023-08-27T18:58:04.144Z,21.24
2023-08-27T19:00:32.759Z,21.22
2023-08-27T19:03:02.389Z,21.18
2023-08-27T19:05:31.130Z,21.15
2023-08-27T19:07:59.864Z,21.14
2023-08-27T19:10:28.591Z,21.09
2023-08-27T19:12:57.500Z,21.08
2023-08-27T19:15:26.766Z,21.08
2023-08-27T19:17:57.731Z,21.03
2023-08-27T19:20:26.541Z,21.02
2023-08-27T19:22:56.190Z,21.03
2023-08-27T19:25:23.678Z,21.03
2023-08-27T19:27:54.202Z,21.00
2023-08-27T19:30:24.002Z,21.00
2023-08-27T19:32:52.488Z,20.96
2023-08-27T19:35:21.147Z,20.94
2023-08-27T19:37:52.140Z,20.94
2023-08-27T19:40:21.175Z,20.93
2023-08-27T19:42:52.046Z,20.88
2023-08-27T19:45:20.144Z,20.87
2023-08-27T19:47:48.566Z,20.89
2023-08-27T19:50:17.144Z,20.83
2023-08-27T19:52:46.042Z,20.84
2023-08-27T19:55:13.646Z,20.82
2023-08-27T19:57:42.198Z,20.78
2023-08-27T20:00:11.848Z,20.78
2023-08-27T20:02:40.658Z,20.77
2023-08-27T20:05:09.076Z,20.73
2023-08-27T20:07:39.014Z,20.72
2023-08-27T20:10:07.158Z,20.67
2023-08-27T20:12:35.792Z,20.67
2023-08-27T20:15:06.851Z,20.68
2023-08-27T20:17:36.999Z,20.67
2023-08-27T20:20:05.620Z,20.62
2023-08-27T20:22:33.942Z,20.64
2023-08-27T20:25:04.997Z,20.60
2023-08-27T20:27:33.080Z,20.58
2023-08-27T20:30:03.217Z,20.57
2023-08-27T20:32:31.216Z,20.57
2023-08-27T20:34:58.871Z,20.53
2023-08-27T20:37:26.846Z,20.53
2023-08-27T20:39:56.489Z,20.52
2023-08-27T20:42:24.162Z,20.49
2023-08-27T20:44:51.969Z,20.46
2023-08-27T20:47:19.381Z,20.47
2023-08-27T20:49:46.911Z,20.43
2023-08-27T20:52:15.338Z,20.43
2023-08-27T20:54:45.748Z,20.40
2023-08-27T20:57:14.071Z,20.39
2023-08-27T20:59:41.575Z,20.37
2023-08-27T21:02:09.288Z,20.36
2023-08-27T21:04:38.822Z,20.36
2023-08-27T21:07:06.163Z,20.37
2023-08-27T21:09:33.156Z,20.36
2023-08-27T21:12:00.439Z,20.32
2023-08-27T21:14:27.514Z,20.32
2023-08-27T21:16:55.128Z,20.29
2023-08-27T21:19:22.660Z,20.32
2023-08-27T21:21:49.896Z,20.29
2023-08-27T21:24:17.038Z,20.27
2023-08-27T21:26:44.403Z,20.25
2023-08-27T21:29:11.649Z,20.23
2023-08-27T21:31:52.316Z,20.20
2023-08-27T21:34:21.624Z,20.20
2023-08-27T21:36:50.091Z,20.21
2023-08-27T21:39:20.250Z,20.20
2023-08-27T21:41:47.837Z,20.21
2023-08-27T21:44:15.383Z,20.17
2023-08-27T21:46:43.803Z,20.16
2023-08-27T21:49:13.773Z,20.20
2023-08-27T21:51:44.644Z,20.17
2023-08-27T21:54:12.885Z,20.12
2023-08-27T21:56:48.757Z,20.14
2023-08-27T21:59:16.125Z,20.11
2023-08-27T22:01:43.779Z,20.09
2023-08-27T22:04:10.958Z,20.04
2023-08-27T22:06:38.321Z,20.01
2023-08-27T22:09:07.170Z,19.96
2023-08-27T22:11:34.616Z,19.98
2023-08-27T22:14:01.676Z,19.98
2023-08-27T22:16:29.412Z,20.00
2023-08-27T22:18:58.471Z,20.00
2023-08-27T22:21:29.878Z,19.99
2023-08-27T22:23:57.729Z,19.96
2023-08-27T22:26:25.235Z,19.96
2023-08-27T22:28:52.834Z,19.94
2023-08-27T22:31:20.633Z,19.94
2023-08-27T22:33:48.303Z,19.99
2023-08-27T22:36:18.395Z,20.05
2023-08-27T22:38:45.413Z,20.09
2023-08-27T22:41:13.396Z,20.10
2023-08-27T22:43:41.427Z,20.09
2023-08-27T22:46:09.668Z,20.12
2023-08-27T22:48:36.924Z,20.15
2023-08-27T22:51:08.508Z,20.15
2023-08-27T22:53:35.820Z,20.22
2023-08-27T22:56:05.643Z,20.21
2023-08-27T22:58:33.356Z,20.22
2023-08-27T23:01:01.376Z,20.21
2023-08-27T23:03:29.006Z,20.22
2023-08-27T23:05:56.919Z,20.23
2023-08-27T23:08:24.432Z,20.22
2023-08-27T23:10:56.593Z,20.20
2023-08-27T23:13:27.847Z,20.20
2023-08-27T23:15:55.858Z,20.22
2023-08-27T23:18:23.487Z,20.22
2023-08-27T23:20:52.392Z,20.23
2023-08-27T23:23:19.695Z,20.25
2023-08-27T23:25:48.128Z,20.22
2023-08-27T23:28:27.877Z,20.20
2023-08-27T23:31:02.385Z,20.23
2023-08-27T23:33:29.536Z,20.22
2023-08-27T23:35:56.973Z,20.19
2023-08-27T23:38:26.932Z,20.21
2023-08-27T23:40:54.486Z,20.19
2023-08-27T23:43:24.602Z,20.16
2023-08-27T23:45:55.184Z,20.19
2023-08-27T23:48:22.096Z,20.17
2023-08-27T23:50:52.391Z,20.16
2023-08-27T23:53:20.025Z,20.18
2023-08-27T23:55:47.749Z,20.19
2023-08-27T23:58:14.606Z,20.17
